createdAt,value
2016-12-30T00:00:15.088Z,981.31
2016-12-30T00:00:45.126Z,981.3
2016-12-30T00:01:15.167Z,981.29
2016-12-30T00:01:45.206Z,981.33
2016-12-30T00:02:15.246Z,981.3
2016-12-30T00:02:45.283Z,981.29
2016-12-30T00:03:15.327Z,981.32
2016-12-30T00:03:45.365Z,981.25
2016-12-30T00:04:15.402Z,981.27
2016-12-30T00:04:45.441Z,981.23
2016-12-30T00:05:15.480Z,981.24
2016-12-30T00:05:45.519Z,981.22
2016-12-30T00:06:15.558Z,981.21
2016-12-30T00:06:45.598Z,981.19
2016-12-30T00:07:15.634Z,981.15
2016-12-30T00:07:45.678Z,981.19
2016-12-30T00:08:15.716Z,981.21
2016-12-30T00:08:45.755Z,981.15
2016-12-30T00:09:15.793Z,981.16
2016-12-30T00:09:45.842Z,981.15
2016-12-30T00:10:15.871Z,981.14
2016-12-30T00:10:45.912Z,981.14
2016-12-30T00:11:15.950Z,981.13
2016-12-30T00:11:45.992Z,981.11
2016-12-30T00:12:16.028Z,981.12
2016-12-30T00:12:46.067Z,981.07
2016-12-30T00:13:16.107Z,981.06
2016-12-30T00:13:46.145Z,981.03
2016-12-30T00:14:16.184Z,981.1
2016-12-30T00:14:46.225Z,981.07
2016-12-30T00:15:16.263Z,980.99
2016-12-30T00:15:46.305Z,981.02
2016-12-30T00:16:16.341Z,981.02
2016-12-30T00:16:46.379Z,981.04
2016-12-30T00:17:16.420Z,981.03
2016-12-30T00:17:46.459Z,981.01
2016-12-30T00:18:16.497Z,980.98
2016-12-30T00:18:46.538Z,981.02
2016-12-30T00:19:16.577Z,981.05
2016-12-30T00:19:46.615Z,981.04
2016-12-30T00:20:16.655Z,981.02
2016-12-30T00:20:46.695Z,981.04
2016-12-30T00:21:16.734Z,981.04
2016-12-30T00:21:46.774Z,980.99
2016-12-30T00:22:16.812Z,981.07
2016-12-30T00:22:46.850Z,981.06
2016-12-30T00:23:16.888Z,981.06
2016-12-30T00:23:46.929Z,981.05
2016-12-30T00:24:16.967Z,981.07
2016-12-30T00:24:47.009Z,981.06
2016-12-30T00:25:17.047Z,981.04
2016-12-30T00:25:47.086Z,981.08
2016-12-30T00:26:17.125Z,981.01
2016-12-30T00:26:47.163Z,981.04
2016-12-30T00:27:17.202Z,981
2016-12-30T00:27:47.245Z,981.04
2016-12-30T00:28:17.284Z,980.99
2016-12-30T00:28:47.323Z,981.03
2016-12-30T00:29:17.360Z,980.99
2016-12-30T00:29:47.397Z,981.01
2016-12-30T00:30:17.438Z,980.99
2016-12-30T00:30:47.476Z,981.02
2016-12-30T00:31:17.516Z,981.02
2016-12-30T00:31:47.557Z,981
2016-12-30T00:32:17.600Z,981.03
2016-12-30T00:32:47.633Z,981.01
2016-12-30T00:33:17.673Z,981
2016-12-30T00:33:47.713Z,980.97
2016-12-30T00:34:17.752Z,980.94
2016-12-30T00:34:47.793Z,980.99
2016-12-30T00:35:17.831Z,980.94
2016-12-30T00:35:47.873Z,980.89
2016-12-30T00:36:17.907Z,980.94
2016-12-30T00:36:47.947Z,980.88
2016-12-30T00:37:17.987Z,980.91
2016-12-30T00:37:48.025Z,980.88
2016-12-30T00:38:18.064Z,980.92
2016-12-30T00:38:48.104Z,980.95
2016-12-30T00:39:18.146Z,980.91
2016-12-30T00:39:48.182Z,980.9
2016-12-30T00:40:18.224Z,980.93
2016-12-30T00:40:48.260Z,980.88
2016-12-30T00:41:18.301Z,980.93
2016-12-30T00:41:48.338Z,980.95
2016-12-30T00:42:18.374Z,980.92
2016-12-30T00:42:48.417Z,980.94
2016-12-30T00:43:18.454Z,980.94
2016-12-30T00:43:48.496Z,980.98
2016-12-30T00:44:18.535Z,981
2016-12-30T00:44:48.574Z,980.98
2016-12-30T00:45:18.614Z,980.99
2016-12-30T00:45:48.653Z,980.99
2016-12-30T00:46:18.691Z,980.96
2016-12-30T00:46:48.730Z,980.95
2016-12-30T00:47:18.770Z,980.96
2016-12-30T00:47:48.808Z,980.98
2016-12-30T00:48:18.847Z,980.99
2016-12-30T00:48:48.887Z,980.96
2016-12-30T00:49:18.928Z,980.97
2016-12-30T00:49:48.963Z,981.04
2016-12-30T00:50:19.004Z,981.05
2016-12-30T00:50:49.045Z,981.09
2016-12-30T00:51:19.084Z,981.07
2016-12-30T00:51:49.125Z,981.06
2016-12-30T00:52:19.161Z,981.07
2016-12-30T00:52:49.202Z,981.1
2016-12-30T00:53:19.237Z,981.04
2016-12-30T00:53:49.278Z,981.12
2016-12-30T00:54:19.317Z,981.11
2016-12-30T00:54:49.356Z,981.09
2016-12-30T00:55:19.395Z,981.09
2016-12-30T00:55:49.433Z,981.07
2016-12-30T00:56:19.476Z,981.07
2016-12-30T00:56:49.513Z,981.04
2016-12-30T00:57:19.554Z,981.07
2016-12-30T00:57:49.592Z,981.03
2016-12-30T00:58:19.630Z,981.03
2016-12-30T00:58:49.671Z,981.06
2016-12-30T00:59:19.710Z,981.04
2016-12-30T00:59:49.748Z,980.99
2016-12-30T01:00:19.787Z,981.04
2016-12-30T01:00:49.828Z,981.06
2016-12-30T01:01:19.866Z,981.02
2016-12-30T01:01:49.905Z,981.06
2016-12-30T01:02:19.944Z,981.08
2016-12-30T01:02:49.983Z,981.06
2016-12-30T01:03:20.022Z,981
2016-12-30T01:03:50.064Z,981.05
2016-12-30T01:04:20.103Z,981.09
2016-12-30T01:04:50.139Z,981.03
2016-12-30T01:05:20.179Z,981.08
2016-12-30T01:05:50.218Z,981.07
2016-12-30T01:06:20.258Z,981.09
2016-12-30T01:06:50.299Z,981.08
2016-12-30T01:07:20.336Z,981.12
2016-12-30T01:07:50.376Z,981.06
2016-12-30T01:08:20.415Z,981.05
2016-12-30T01:08:50.457Z,981.09
2016-12-30T01:09:20.493Z,981.1
2016-12-30T01:09:50.529Z,981.08
2016-12-30T01:10:20.570Z,981.07
2016-12-30T01:10:50.610Z,981.09
2016-12-30T01:11:20.647Z,981.05
2016-12-30T01:11:50.687Z,981.11
2016-12-30T01:12:20.725Z,981.07
2016-12-30T01:12:50.764Z,981.08
2016-12-30T01:13:20.804Z,981.1
2016-12-30T01:13:50.845Z,981.04
2016-12-30T01:14:20.883Z,981.06
2016-12-30T01:14:50.922Z,981.09
2016-12-30T01:15:20.961Z,981.12
2016-12-30T01:15:51.001Z,981.12
2016-12-30T01:16:21.043Z,981.12
2016-12-30T01:16:51.079Z,981.11
2016-12-30T01:17:21.118Z,981.14
2016-12-30T01:17:51.158Z,981.12
2016-12-30T01:18:21.199Z,981.12
2016-12-30T01:18:51.236Z,981.05
2016-12-30T01:19:21.277Z,981.09
2016-12-30T01:19:51.313Z,981.1
2016-12-30T01:20:21.352Z,981.11
2016-12-30T01:20:51.392Z,981.12
2016-12-30T01:21:21.431Z,981.11
2016-12-30T01:21:51.471Z,981.11
2016-12-30T01:22:21.509Z,981.12
2016-12-30T01:22:51.550Z,981.07
2016-12-30T01:23:21.587Z,981.13
2016-12-30T01:23:51.626Z,981.1
2016-12-30T01:24:21.667Z,981.12
2016-12-30T01:24:51.705Z,981.07
2016-12-30T01:25:21.743Z,981.11
2016-12-30T01:25:51.783Z,981.1
2016-12-30T01:26:21.835Z,981.12
2016-12-30T01:26:51.863Z,981.11
2016-12-30T01:27:21.900Z,981.06
2016-12-30T01:27:51.940Z,981.09
2016-12-30T01:28:21.978Z,981.09
2016-12-30T01:28:52.016Z,981.07
2016-12-30T01:29:22.057Z,981.1
2016-12-30T01:29:52.098Z,981.1
2016-12-30T01:30:22.137Z,981.08
2016-12-30T01:30:52.175Z,981.07
2016-12-30T01:31:22.215Z,981.08
2016-12-30T01:31:52.253Z,981.09
2016-12-30T01:32:22.293Z,981.09
2016-12-30T01:32:52.333Z,981.07
2016-12-30T01:33:22.371Z,981.06
2016-12-30T01:33:52.410Z,981.09
2016-12-30T01:34:22.449Z,981.09
2016-12-30T01:34:52.490Z,981.09
2016-12-30T01:35:22.528Z,981.08
2016-12-30T01:35:52.567Z,981.08
2016-12-30T01:36:22.605Z,981.07
2016-12-30T01:36:52.644Z,981.11
2016-12-30T01:37:22.684Z,981.1
2016-12-30T01:37:52.724Z,981.1
2016-12-30T01:38:22.763Z,981.1
2016-12-30T01:38:52.803Z,981.12
2016-12-30T01:39:22.843Z,981.07
2016-12-30T01:39:52.882Z,981.05
2016-12-30T01:40:22.916Z,981.08
2016-12-30T01:40:52.956Z,981.08
2016-12-30T01:41:22.999Z,981.08
2016-12-30T01:41:53.036Z,981.08
2016-12-30T01:42:23.076Z,981.09
2016-12-30T01:42:53.114Z,981.08
2016-12-30T01:43:23.154Z,981.08
2016-12-30T01:43:53.194Z,981.08
2016-12-30T01:44:23.232Z,981.06
2016-12-30T01:44:53.271Z,981.07
2016-12-30T01:45:23.313Z,981.06
2016-12-30T01:45:53.348Z,981.02
2016-12-30T01:46:23.388Z,981.04
2016-12-30T01:46:53.427Z,981.04
2016-12-30T01:47:23.468Z,981.06
2016-12-30T01:47:53.514Z,981.06
2016-12-30T01:48:23.544Z,981.03
2016-12-30T01:48:53.584Z,981.02
2016-12-30T01:49:23.623Z,981.09
2016-12-30T01:49:53.663Z,981.06
2016-12-30T01:50:23.701Z,981.07
2016-12-30T01:50:53.740Z,981.05
2016-12-30T01:51:23.775Z,981
2016-12-30T01:51:53.855Z,981.04
2016-12-30T01:52:23.857Z,981.07
2016-12-30T01:52:53.896Z,981.06
2016-12-30T01:53:23.936Z,981.03
2016-12-30T01:53:53.979Z,981.05
2016-12-30T01:54:24.015Z,981.01
2016-12-30T01:54:54.054Z,981
2016-12-30T01:55:24.093Z,981.02
2016-12-30T01:55:54.132Z,980.99
2016-12-30T01:56:24.174Z,981.02
2016-12-30T01:56:54.213Z,981.01
2016-12-30T01:57:24.250Z,980.98
2016-12-30T01:57:54.288Z,981.01
2016-12-30T01:58:24.330Z,981.01
2016-12-30T01:58:54.367Z,980.96
2016-12-30T01:59:24.405Z,981.01
2016-12-30T01:59:54.444Z,981.01
2016-12-30T02:00:24.482Z,981.01
2016-12-30T02:00:54.524Z,981.01
2016-12-30T02:01:24.562Z,981.04
2016-12-30T02:01:54.601Z,981.02
2016-12-30T02:02:24.640Z,980.99
2016-12-30T02:02:54.681Z,981.01
2016-12-30T02:03:24.719Z,980.99
2016-12-30T02:03:54.755Z,980.97
2016-12-30T02:04:24.796Z,980.98
2016-12-30T02:04:54.835Z,980.96
2016-12-30T02:05:24.874Z,980.96
2016-12-30T02:05:54.918Z,980.93
2016-12-30T02:06:24.951Z,980.93
2016-12-30T02:06:54.992Z,980.93
2016-12-30T02:07:25.031Z,980.95
2016-12-30T02:07:55.070Z,980.94
2016-12-30T02:08:25.109Z,980.98
2016-12-30T02:08:55.152Z,980.99
2016-12-30T02:09:25.186Z,980.97
2016-12-30T02:09:55.228Z,980.93
2016-12-30T02:10:25.263Z,980.98
2016-12-30T02:10:55.304Z,981
2016-12-30T02:11:25.345Z,981
2016-12-30T02:11:55.383Z,981
2016-12-30T02:12:25.422Z,981.03
2016-12-30T02:12:55.464Z,981.05
2016-12-30T02:13:25.501Z,981.03
2016-12-30T02:13:55.542Z,981.02
2016-12-30T02:14:25.577Z,981
2016-12-30T02:14:55.618Z,980.96
2016-12-30T02:15:25.656Z,980.97
2016-12-30T02:15:55.698Z,980.98
2016-12-30T02:16:25.736Z,980.96
2016-12-30T02:16:55.784Z,980.94
2016-12-30T02:17:25.815Z,980.95
2016-12-30T02:17:55.853Z,980.96
2016-12-30T02:18:25.894Z,980.97
2016-12-30T02:18:55.932Z,980.93
2016-12-30T02:19:25.971Z,980.97
2016-12-30T02:19:56.013Z,980.94
2016-12-30T02:20:26.050Z,980.95
2016-12-30T02:20:56.091Z,980.95
2016-12-30T02:21:26.129Z,980.96
2016-12-30T02:21:56.167Z,980.95
2016-12-30T02:22:26.203Z,980.94
2016-12-30T02:22:56.246Z,980.92
2016-12-30T02:23:26.284Z,980.97
2016-12-30T02:23:56.322Z,980.9
2016-12-30T02:24:26.361Z,980.86
2016-12-30T02:24:56.403Z,980.95
2016-12-30T02:25:26.444Z,980.92
2016-12-30T02:25:56.479Z,980.91
2016-12-30T02:26:26.518Z,980.88
2016-12-30T02:26:56.559Z,980.91
2016-12-30T02:27:26.594Z,980.84
2016-12-30T02:27:56.636Z,980.84
2016-12-30T02:28:26.675Z,980.87
2016-12-30T02:28:56.714Z,980.9
2016-12-30T02:29:26.752Z,980.89
2016-12-30T02:29:56.792Z,980.85
2016-12-30T02:30:26.831Z,980.9
2016-12-30T02:30:56.871Z,980.91
2016-12-30T02:31:26.908Z,980.94
2016-12-30T02:31:56.948Z,980.93
2016-12-30T02:32:26.986Z,980.94
2016-12-30T02:32:57.027Z,980.95
2016-12-30T02:33:27.063Z,980.98
2016-12-30T02:33:57.103Z,980.99
2016-12-30T02:34:27.143Z,980.95
2016-12-30T02:34:57.181Z,980.98
2016-12-30T02:35:27.223Z,980.99
2016-12-30T02:35:57.260Z,980.99
2016-12-30T02:36:27.300Z,980.94
2016-12-30T02:36:57.340Z,980.97
2016-12-30T02:37:27.379Z,980.95
2016-12-30T02:37:57.418Z,980.95
2016-12-30T02:38:27.455Z,980.94
2016-12-30T02:38:57.501Z,980.96
2016-12-30T02:39:27.534Z,980.96
2016-12-30T02:39:57.573Z,980.97
2016-12-30T02:40:27.612Z,980.97
2016-12-30T02:40:57.652Z,981
2016-12-30T02:41:27.691Z,981
2016-12-30T02:41:57.732Z,980.98
2016-12-30T02:42:27.771Z,980.98
2016-12-30T02:42:57.808Z,980.97
2016-12-30T02:43:27.849Z,980.92
2016-12-30T02:43:57.887Z,980.96
2016-12-30T02:44:27.925Z,980.92
2016-12-30T02:44:57.963Z,980.97
2016-12-30T02:45:28.004Z,980.98
2016-12-30T02:45:58.043Z,981.01
2016-12-30T02:46:28.080Z,980.99
2016-12-30T02:46:58.122Z,980.99
2016-12-30T02:47:28.161Z,981.01
2016-12-30T02:47:58.200Z,981.01
2016-12-30T02:48:28.240Z,981.02
2016-12-30T02:48:58.277Z,980.99
2016-12-30T02:49:28.316Z,981.01
2016-12-30T02:49:58.357Z,981.01
2016-12-30T02:50:28.396Z,980.96
2016-12-30T02:50:58.434Z,980.98
2016-12-30T02:51:28.474Z,980.98
2016-12-30T02:51:58.512Z,980.94
2016-12-30T02:52:28.552Z,980.95
2016-12-30T02:52:58.590Z,980.96
2016-12-30T02:53:28.629Z,980.97
2016-12-30T02:53:58.669Z,980.94
2016-12-30T02:54:28.706Z,980.99
2016-12-30T02:54:58.746Z,980.99
2016-12-30T02:55:28.787Z,980.96
2016-12-30T02:55:58.831Z,981
2016-12-30T02:56:28.864Z,980.94
2016-12-30T02:56:58.900Z,981
2016-12-30T02:57:28.941Z,981
2016-12-30T02:57:58.981Z,980.98
2016-12-30T02:58:29.020Z,981
2016-12-30T02:58:59.062Z,980.98
2016-12-30T02:59:29.098Z,981.01
2016-12-30T02:59:59.138Z,980.97
2016-12-30T03:00:29.177Z,980.96
2016-12-30T03:00:59.215Z,980.92
2016-12-30T03:01:29.254Z,980.94
2016-12-30T03:01:59.294Z,980.98
2016-12-30T03:02:29.335Z,980.96
2016-12-30T03:02:59.373Z,980.93
2016-12-30T03:03:29.411Z,981
2016-12-30T03:03:59.451Z,980.97
2016-12-30T03:04:29.492Z,980.98
2016-12-30T03:04:59.531Z,980.99
2016-12-30T03:05:29.569Z,981.02
2016-12-30T03:05:59.608Z,981.01
2016-12-30T03:06:29.646Z,981.03
2016-12-30T03:06:59.687Z,980.99
2016-12-30T03:07:29.723Z,981.01
2016-12-30T03:07:59.760Z,981
2016-12-30T03:08:29.802Z,980.98
2016-12-30T03:08:59.842Z,981.02
2016-12-30T03:09:29.881Z,981.02
2016-12-30T03:09:59.921Z,981
2016-12-30T03:10:29.960Z,980.98
2016-12-30T03:10:59.998Z,981.01
2016-12-30T03:11:30.038Z,981.03
2016-12-30T03:12:00.078Z,980.99
2016-12-30T03:12:30.114Z,981.03
2016-12-30T03:13:00.156Z,981.02
2016-12-30T03:13:30.194Z,981.02
2016-12-30T03:14:00.233Z,980.98
2016-12-30T03:14:30.271Z,980.96
2016-12-30T03:15:00.310Z,981.02
2016-12-30T03:15:30.350Z,981.02
2016-12-30T03:16:00.389Z,980.95
2016-12-30T03:16:30.429Z,980.94
2016-12-30T03:17:00.467Z,980.98
2016-12-30T03:17:30.506Z,981.03
2016-12-30T03:18:00.545Z,980.97
2016-12-30T03:18:30.584Z,981.07
2016-12-30T03:19:00.624Z,981.04
2016-12-30T03:19:30.671Z,981.04
2016-12-30T03:20:00.702Z,981.06
2016-12-30T03:20:30.742Z,981.03
2016-12-30T03:21:00.779Z,981.09
2016-12-30T03:21:30.819Z,981.09
2016-12-30T03:22:00.859Z,981.07
2016-12-30T03:22:30.897Z,981.03
2016-12-30T03:23:00.938Z,981.04
2016-12-30T03:23:30.974Z,981.05
2016-12-30T03:24:01.019Z,981.04
2016-12-30T03:24:31.053Z,981.04
2016-12-30T03:25:01.093Z,981.04
2016-12-30T03:25:31.134Z,981.01
2016-12-30T03:26:01.171Z,980.99
2016-12-30T03:26:31.211Z,981.02
2016-12-30T03:27:01.250Z,981.01
2016-12-30T03:27:31.288Z,980.98
2016-12-30T03:28:01.328Z,980.99
2016-12-30T03:28:31.367Z,981
2016-12-30T03:29:01.403Z,981.03
2016-12-30T03:29:31.446Z,981.03
2016-12-30T03:30:01.484Z,981.04
2016-12-30T03:30:31.521Z,981.05
2016-12-30T03:31:01.561Z,981.07
2016-12-30T03:31:31.601Z,981.1
2016-12-30T03:32:01.940Z,981.12
2016-12-30T03:32:31.679Z,981.13
2016-12-30T03:33:01.719Z,981.11
2016-12-30T03:33:31.758Z,981.1
2016-12-30T03:34:02.001Z,981.12
2016-12-30T03:34:31.833Z,981.06
2016-12-30T03:35:01.873Z,981.14
2016-12-30T03:35:31.915Z,981.12
2016-12-30T03:36:02.003Z,981.14
2016-12-30T03:36:31.993Z,981.11
2016-12-30T03:37:02.033Z,981.08
2016-12-30T03:37:32.069Z,981.09
2016-12-30T03:38:02.108Z,981.1
2016-12-30T03:38:32.150Z,981.09
2016-12-30T03:39:02.338Z,981.1
2016-12-30T03:39:32.227Z,981.08
2016-12-30T03:40:02.265Z,981.07
2016-12-30T03:40:32.303Z,981.06
2016-12-30T03:41:02.644Z,981.07
2016-12-30T03:41:32.382Z,981
2016-12-30T03:42:02.422Z,981.03
2016-12-30T03:42:32.460Z,981.02
2016-12-30T03:43:02.499Z,981.08
2016-12-30T03:43:32.539Z,981.07
2016-12-30T03:44:02.576Z,981.09
2016-12-30T03:44:32.616Z,981.05
2016-12-30T03:45:02.654Z,981.05
2016-12-30T03:45:32.694Z,981.07
2016-12-30T03:46:02.731Z,981.04
2016-12-30T03:46:32.774Z,981.08
2016-12-30T03:47:02.812Z,981.03
2016-12-30T03:47:32.851Z,981.05
2016-12-30T03:48:02.891Z,981.03
2016-12-30T03:48:32.927Z,981.06
2016-12-30T03:49:02.969Z,981.02
2016-12-30T03:49:33.008Z,981.04
2016-12-30T03:50:03.048Z,981.01
2016-12-30T03:50:33.085Z,980.98
2016-12-30T03:51:03.124Z,980.96
2016-12-30T03:51:33.166Z,981.01
2016-12-30T03:52:03.204Z,981
2016-12-30T03:52:33.243Z,980.99
2016-12-30T03:53:03.281Z,980.94
2016-12-30T03:53:33.329Z,980.9
2016-12-30T03:54:03.359Z,980.93
2016-12-30T03:54:33.398Z,980.9
2016-12-30T03:55:03.439Z,980.9
2016-12-30T03:55:33.477Z,980.91
2016-12-30T03:56:03.516Z,980.88
2016-12-30T03:56:33.556Z,980.92
2016-12-30T03:57:03.594Z,980.96
2016-12-30T03:57:33.632Z,980.93
2016-12-30T03:58:03.672Z,980.94
2016-12-30T03:58:33.712Z,980.94
2016-12-30T03:59:03.751Z,980.89
2016-12-30T03:59:33.790Z,980.95
2016-12-30T04:00:03.830Z,980.92
2016-12-30T04:00:33.867Z,980.94
2016-12-30T04:01:03.907Z,980.92
2016-12-30T04:01:33.947Z,980.91
2016-12-30T04:02:03.984Z,980.93
2016-12-30T04:02:34.027Z,980.91
2016-12-30T04:03:04.062Z,980.9
2016-12-30T04:03:34.103Z,980.92
2016-12-30T04:04:04.141Z,980.91
2016-12-30T04:04:34.178Z,980.94
2016-12-30T04:05:04.220Z,980.91
2016-12-30T04:05:34.260Z,980.87
2016-12-30T04:06:04.297Z,980.93
2016-12-30T04:06:34.337Z,980.93
2016-12-30T04:07:04.376Z,980.91
2016-12-30T04:07:34.415Z,980.95
2016-12-30T04:08:04.453Z,980.92
2016-12-30T04:08:34.493Z,980.89
2016-12-30T04:09:04.534Z,980.93
2016-12-30T04:09:34.572Z,980.96
2016-12-30T04:10:04.613Z,980.96
2016-12-30T04:10:34.649Z,980.95
2016-12-30T04:11:04.689Z,980.97
2016-12-30T04:11:34.726Z,980.93
2016-12-30T04:12:04.766Z,980.97
2016-12-30T04:12:34.805Z,980.97
2016-12-30T04:13:04.846Z,980.95
2016-12-30T04:13:34.883Z,981.01
2016-12-30T04:14:04.923Z,980.94
2016-12-30T04:14:34.962Z,980.91
2016-12-30T04:15:05.002Z,980.98
2016-12-30T04:15:35.040Z,980.97
2016-12-30T04:16:05.081Z,980.97
2016-12-30T04:16:35.121Z,980.98
2016-12-30T04:17:05.160Z,980.98
2016-12-30T04:17:35.198Z,980.97
2016-12-30T04:18:05.237Z,980.93
2016-12-30T04:18:35.275Z,980.96
2016-12-30T04:19:05.315Z,980.9
2016-12-30T04:19:35.355Z,980.88
2016-12-30T04:20:05.392Z,980.92
2016-12-30T04:20:35.433Z,980.94
2016-12-30T04:21:05.472Z,980.93
2016-12-30T04:21:35.510Z,980.92
2016-12-30T04:22:05.548Z,980.88
2016-12-30T04:22:35.588Z,980.94
2016-12-30T04:23:05.627Z,980.91
2016-12-30T04:23:35.667Z,980.92
2016-12-30T04:24:05.713Z,980.89
2016-12-30T04:24:35.750Z,980.86
2016-12-30T04:25:05.783Z,980.88
2016-12-30T04:25:35.823Z,980.92
2016-12-30T04:26:05.860Z,980.91
2016-12-30T04:26:35.901Z,980.91
2016-12-30T04:27:05.941Z,980.93
2016-12-30T04:27:35.983Z,980.92
2016-12-30T04:28:06.017Z,980.94
2016-12-30T04:28:36.058Z,980.95
2016-12-30T04:29:06.100Z,980.93
2016-12-30T04:29:36.135Z,980.97
2016-12-30T04:30:06.174Z,980.92
2016-12-30T04:30:36.213Z,980.92
2016-12-30T04:31:06.253Z,980.93
2016-12-30T04:31:36.292Z,980.95
2016-12-30T04:32:06.330Z,980.97
2016-12-30T04:32:36.370Z,980.98
2016-12-30T04:33:06.408Z,980.99
2016-12-30T04:33:36.448Z,980.99
2016-12-30T04:34:06.487Z,981
2016-12-30T04:34:36.528Z,980.96
2016-12-30T04:35:06.566Z,981
2016-12-30T04:35:36.604Z,981
2016-12-30T04:36:06.642Z,981
2016-12-30T04:36:36.681Z,981
2016-12-30T04:37:06.722Z,981.02
2016-12-30T04:37:36.761Z,981.03
2016-12-30T04:38:06.800Z,981.04
2016-12-30T04:38:36.839Z,981.07
2016-12-30T04:39:06.883Z,981.06
2016-12-30T04:39:36.917Z,981.05
2016-12-30T04:40:06.956Z,981.07
2016-12-30T04:40:36.995Z,981.1
2016-12-30T04:41:07.035Z,981.07
2016-12-30T04:41:37.071Z,981.09
2016-12-30T04:42:07.111Z,981.1
2016-12-30T04:42:37.151Z,981.05
2016-12-30T04:43:07.190Z,981.05
2016-12-30T04:43:37.231Z,981.1
2016-12-30T04:44:07.275Z,981.03
2016-12-30T04:44:37.310Z,981.05
2016-12-30T04:45:07.345Z,981.07
2016-12-30T04:45:37.387Z,981.04
2016-12-30T04:46:07.425Z,981.02
2016-12-30T04:46:37.465Z,981.01
2016-12-30T04:47:07.510Z,981.03
2016-12-30T04:47:37.554Z,981.07
2016-12-30T04:48:07.580Z,981.05
2016-12-30T04:48:37.621Z,981.07
2016-12-30T04:49:07.660Z,981.08
2016-12-30T04:49:37.698Z,981.05
2016-12-30T04:50:07.738Z,981.09
2016-12-30T04:50:37.776Z,981.08
2016-12-30T04:51:07.815Z,981.11
2016-12-30T04:51:37.856Z,981.08
2016-12-30T04:52:07.894Z,981.12
2016-12-30T04:52:37.932Z,981.11
2016-12-30T04:53:07.970Z,981.11
2016-12-30T04:53:38.011Z,981.1
2016-12-30T04:54:08.049Z,981.1
2016-12-30T04:54:38.090Z,981.11
2016-12-30T04:55:08.140Z,981.12
2016-12-30T04:55:38.168Z,981.09
2016-12-30T04:56:08.212Z,981.12
2016-12-30T04:56:38.245Z,981.11
2016-12-30T04:57:08.284Z,981.11
2016-12-30T04:57:38.324Z,981.11
2016-12-30T04:58:08.364Z,981.12
2016-12-30T04:58:38.400Z,981.12
2016-12-30T04:59:08.439Z,981.09
2016-12-30T04:59:38.484Z,981.15
2016-12-30T05:00:08.519Z,981.14
2016-12-30T05:00:38.556Z,981.14
2016-12-30T05:01:08.597Z,981.14
2016-12-30T05:01:38.637Z,981.14
2016-12-30T05:02:08.676Z,981.08
2016-12-30T05:02:38.717Z,981.11
2016-12-30T05:03:08.753Z,981.07
2016-12-30T05:03:38.792Z,981.13
2016-12-30T05:04:08.831Z,981.13
2016-12-30T05:04:38.871Z,981.18
2016-12-30T05:05:08.910Z,981.15
2016-12-30T05:05:38.950Z,981.19
2016-12-30T05:06:08.989Z,981.22
2016-12-30T05:06:39.028Z,981.23
2016-12-30T05:07:09.067Z,981.27
2016-12-30T05:07:39.105Z,981.26
2016-12-30T05:08:09.148Z,981.32
2016-12-30T05:08:39.183Z,981.24
2016-12-30T05:09:09.223Z,981.3
2016-12-30T05:09:39.262Z,981.31
2016-12-30T05:10:09.302Z,981.33
2016-12-30T05:10:39.339Z,981.36
2016-12-30T05:11:09.377Z,981.36
2016-12-30T05:11:39.420Z,981.36
2016-12-30T05:12:09.459Z,981.31
2016-12-30T05:12:39.494Z,981.35
2016-12-30T05:13:09.542Z,981.31
2016-12-30T05:13:39.575Z,981.38
2016-12-30T05:14:09.613Z,981.32
2016-12-30T05:14:39.653Z,981.37
2016-12-30T05:15:09.692Z,981.39
2016-12-30T05:15:39.731Z,981.37
2016-12-30T05:16:09.769Z,981.33
2016-12-30T05:16:39.808Z,981.36
2016-12-30T05:17:09.848Z,981.34
2016-12-30T05:17:39.888Z,981.33
2016-12-30T05:18:09.926Z,981.32
2016-12-30T05:18:39.966Z,981.24
2016-12-30T05:19:10.004Z,981.21
2016-12-30T05:19:40.044Z,981.27
2016-12-30T05:20:10.083Z,981.25
2016-12-30T05:20:40.120Z,981.22
2016-12-30T05:21:10.160Z,981.23
2016-12-30T05:21:40.196Z,981.26
2016-12-30T05:22:10.237Z,981.23
2016-12-30T05:22:40.277Z,981.27
2016-12-30T05:23:10.319Z,981.3
2016-12-30T05:23:40.354Z,981.27
2016-12-30T05:24:10.393Z,981.31
2016-12-30T05:24:40.433Z,981.31
2016-12-30T05:25:10.472Z,981.34
2016-12-30T05:25:40.512Z,981.32
2016-12-30T05:26:10.551Z,981.37
2016-12-30T05:26:40.591Z,981.35
2016-12-30T05:27:10.628Z,981.34
2016-12-30T05:27:40.668Z,981.25
2016-12-30T05:28:10.712Z,981.32
2016-12-30T05:28:40.746Z,981.32
2016-12-30T05:29:10.787Z,981.28
2016-12-30T05:29:40.825Z,981.29
2016-12-30T05:30:10.864Z,981.28
2016-12-30T05:30:40.903Z,981.27
2016-12-30T05:31:10.941Z,981.25
2016-12-30T05:31:40.982Z,981.3
2016-12-30T05:32:11.019Z,981.3
2016-12-30T05:32:41.059Z,981.27
2016-12-30T05:33:11.098Z,981.26
2016-12-30T05:33:41.140Z,981.25
2016-12-30T05:34:11.176Z,981.27
2016-12-30T05:34:41.215Z,981.3
2016-12-30T05:35:11.255Z,981.29
2016-12-30T05:35:41.292Z,981.28
2016-12-30T05:36:11.332Z,981.26
2016-12-30T05:36:41.371Z,981.31
2016-12-30T05:37:11.410Z,981.29
2016-12-30T05:37:41.448Z,981.25
2016-12-30T05:38:11.488Z,981.26
2016-12-30T05:38:41.526Z,981.3
2016-12-30T05:39:11.566Z,981.3
2016-12-30T05:39:41.606Z,981.31
2016-12-30T05:40:11.644Z,981.31
2016-12-30T05:40:41.685Z,981.26
2016-12-30T05:41:11.727Z,981.34
2016-12-30T05:41:41.762Z,981.33
2016-12-30T05:42:11.800Z,981.33
2016-12-30T05:42:41.841Z,981.36
2016-12-30T05:43:11.879Z,981.34
2016-12-30T05:43:41.919Z,981.33
2016-12-30T05:44:11.956Z,981.3
2016-12-30T05:44:41.997Z,981.26
2016-12-30T05:45:12.035Z,981.33
2016-12-30T05:45:42.074Z,981.33
2016-12-30T05:46:12.112Z,981.34
2016-12-30T05:46:42.152Z,981.3
2016-12-30T05:47:12.189Z,981.35
2016-12-30T05:47:42.231Z,981.35
2016-12-30T05:48:12.271Z,981.26
2016-12-30T05:48:42.309Z,981.33
2016-12-30T05:49:12.348Z,981.31
2016-12-30T05:49:42.388Z,981.24
2016-12-30T05:50:12.426Z,981.34
2016-12-30T05:50:42.462Z,981.32
2016-12-30T05:51:12.505Z,981.32
2016-12-30T05:51:42.543Z,981.29
2016-12-30T05:52:12.582Z,981.24
2016-12-30T05:52:42.621Z,981.31
2016-12-30T05:53:12.660Z,981.32
2016-12-30T05:53:42.700Z,981.32
2016-12-30T05:54:12.741Z,981.31
2016-12-30T05:54:42.778Z,981.31
2016-12-30T05:55:12.819Z,981.26
2016-12-30T05:55:42.853Z,981.34
2016-12-30T05:56:12.895Z,981.27
2016-12-30T05:56:42.933Z,981.35
2016-12-30T05:57:12.973Z,981.3
2016-12-30T05:57:43.013Z,981.35
2016-12-30T05:58:13.050Z,981.37
2016-12-30T05:58:43.091Z,981.35
2016-12-30T05:59:13.127Z,981.38
2016-12-30T05:59:43.171Z,981.35
2016-12-30T06:00:13.206Z,981.38
2016-12-30T06:00:43.597Z,981.38
2016-12-30T06:01:13.282Z,981.37
2016-12-30T06:01:43.324Z,981.33
2016-12-30T06:02:13.363Z,981.31
2016-12-30T06:02:43.401Z,981.37
2016-12-30T06:03:13.441Z,981.33
2016-12-30T06:03:43.484Z,981.38
2016-12-30T06:04:13.517Z,981.36
2016-12-30T06:04:43.560Z,981.38
2016-12-30T06:05:13.599Z,981.39
2016-12-30T06:05:43.637Z,981.38
2016-12-30T06:06:13.676Z,981.32
2016-12-30T06:06:43.714Z,981.33
2016-12-30T06:07:13.753Z,981.32
2016-12-30T06:07:43.790Z,981.36
2016-12-30T06:08:13.832Z,981.32
2016-12-30T06:08:43.871Z,981.35
2016-12-30T06:09:13.909Z,981.28
2016-12-30T06:09:43.949Z,981.36
2016-12-30T06:10:13.990Z,981.39
2016-12-30T06:10:44.027Z,981.31
2016-12-30T06:11:14.066Z,981.37
2016-12-30T06:11:44.104Z,981.38
2016-12-30T06:12:14.144Z,981.38
2016-12-30T06:12:44.184Z,981.4
2016-12-30T06:13:14.220Z,981.43
2016-12-30T06:13:44.265Z,981.44
2016-12-30T06:14:14.300Z,981.44
2016-12-30T06:14:44.338Z,981.48
2016-12-30T06:15:14.379Z,981.51
2016-12-30T06:15:44.417Z,981.53
2016-12-30T06:16:14.460Z,981.51
2016-12-30T06:16:44.497Z,981.51